Time;durP1;ratioP1;P1;durP2;ratioP2;P2;SDS_P1;SDS_P2;PMS_P1;PMS_P2;Temp;Humidity;BMP_temperature;BMP_pressure;BME280_temperature;BME280_humidity;BME280_pressure;Samples;Min_cycle;Max_cycle;Signal;HPM_P1;HPM_P2
2023/12/11 00:00:34;;;;;;;1.33;1.33;;;;;;;5.61;83.65;96183.91;4996762;28;20038;-73
2023/12/11 00:03:02;;;;;;;0.60;0.60;;;;;;;5.56;83.56;96189.81;4997615;28;20039;-73
2023/12/11 00:05:30;;;;;;;0.30;0.30;;;;;;;5.59;83.49;96204.47;4995515;28;20435;-73
2023/12/11 00:07:58;;;;;;;0.75;0.75;;;;;;;5.60;83.50;96193.72;4995996;28;20042;-73
2023/12/11 00:10:26;;;;;;;0.70;0.70;;;;;;;5.63;83.38;96179.25;5001682;28;20053;-73
2023/12/11 00:12:54;;;;;;;0.90;0.90;;;;;;;5.58;83.37;96171.09;4999604;28;20521;-73
2023/12/11 00:15:22;;;;;;;0.77;0.77;;;;;;;5.58;83.66;96176.38;4979095;28;20035;-73
2023/12/11 00:17:49;;;;;;;0.93;0.93;;;;;;;5.51;83.80;96148.06;4995423;28;20503;-73
2023/12/11 00:20:17;;;;;;;0.95;0.95;;;;;;;5.57;83.58;96149.09;4999158;28;20049;-72
2023/12/11 00:22:45;;;;;;;0.90;0.90;;;;;;;5.57;83.58;96153.59;4977038;28;20054;-73
2023/12/11 00:25:13;;;;;;;1.00;1.00;;;;;;;5.56;83.63;96144.00;4998338;28;20042;-73
2023/12/11 00:27:42;;;;;;;0.77;0.77;;;;;;;5.50;83.90;96158.88;4994835;28;20109;-72
2023/12/11 00:30:10;;;;;;;1.05;1.05;;;;;;;5.57;83.72;96166.81;4999989;28;20046;-73
2023/12/11 00:32:38;;;;;;;1.25;1.25;;;;;;;5.50;83.95;96164.94;5001098;28;20508;-73
2023/12/11 00:35:07;;;;;;;1.00;1.00;;;;;;;5.47;84.04;96168.00;4996008;28;20363;-73
2023/12/11 00:37:34;;;;;;;0.82;0.82;;;;;;;5.48;83.93;96161.72;4992316;28;20456;-73
2023/12/11 00:40:02;;;;;;;1.13;1.13;;;;;;;5.53;83.87;96161.09;4995771;28;20042;-74
2023/12/11 00:42:30;;;;;;;0.40;0.40;;;;;;;5.50;84.24;96167.59;5003523;28;20581;-73
2023/12/11 00:44:59;;;;;;;1.10;1.10;;;;;;;5.47;84.41;96149.50;4985133;28;20050;-73
2023/12/11 00:47:26;;;;;;;1.27;1.27;;;;;;;5.48;84.47;96152.94;4998020;28;20120;-72
2023/12/11 00:49:54;;;;;;;0.60;0.60;;;;;;;5.52;84.47;96151.53;4992899;28;20058;-72
2023/12/11 00:52:22;;;;;;;1.08;1.08;;;;;;;5.51;84.72;96153.34;4997074;28;20046;-72
2023/12/11 00:54:50;;;;;;;1.38;1.38;;;;;;;5.52;84.66;96170.84;4997707;28;20054;-72
2023/12/11 00:57:17;;;;;;;0.85;0.85;;;;;;;5.59;84.74;96162.97;4994024;28;20124;-73
2023/12/11 00:59:45;;;;;;;0.40;0.40;;;;;;;5.60;84.66;96163.78;5001069;28;20414;-73
2023/12/11 01:02:14;;;;;;;1.08;1.08;;;;;;;5.66;84.64;96165.63;4993681;28;20056;-73
2023/12/11 01:04:41;;;;;;;0.98;0.98;;;;;;;5.66;84.79;96182.31;4998615;28;20530;-73
2023/12/11 01:07:09;;;;;;;1.30;1.30;;;;;;;5.74;84.86;96178.66;4995090;28;20064;-73
2023/12/11 01:09:37;;;;;;;0.40;0.40;;;;;;;5.72;84.79;96178.84;4993540;28;20561;-73
2023/12/11 01:12:06;;;;;;;0.95;0.95;;;;;;;5.74;84.91;96182.13;5000523;28;20047;-73
2023/12/11 01:14:33;;;;;;;0.77;0.77;;;;;;;5.85;84.67;96196.63;5001581;28;20060;-72
2023/12/11 01:17:01;;;;;;;1.08;1.08;;;;;;;5.85;84.64;96196.63;4996095;28;20050;-73
2023/12/11 01:19:49;;;;;;;1.00;1.00;;;;;;;5.88;84.65;96183.03;4997655;28;20030;-73
2023/12/11 01:22:17;;;;;;;0.80;0.80;;;;;;;5.87;84.74;96197.25;4996828;28;20046;-73
2023/12/11 01:24:45;;;;;;;0.88;0.88;;;;;;;5.85;84.91;96197.44;4993433;28;20039;-74
2023/12/11 01:27:12;;;;;;;1.08;1.08;;;;;;;5.89;85.00;96192.59;4998029;28;20054;-73
2023/12/11 01:29:40;;;;;;;0.40;0.40;;;;;;;5.90;85.05;96196.88;4995885;28;20442;-74
2023/12/11 01:32:07;;;;;;;1.40;1.40;;;;;;;5.92;84.93;96184.22;5000889;28;20047;-73
2023/12/11 01:34:35;;;;;;;0.90;0.90;;;;;;;6.00;85.18;96181.44;4996693;28;20046;-73
2023/12/11 01:37:04;;;;;;;0.70;0.70;;;;;;;6.05;84.90;96178.16;4997668;28;20129;-72
2023/12/11 01:39:32;;;;;;;0.95;0.95;;;;;;;6.09;85.04;96180.22;4993296;28;20108;-73
2023/12/11 01:41:59;;;;;;;0.90;0.90;;;;;;;6.14;85.02;96175.09;4975066;28;20185;-73
2023/12/11 01:44:27;;;;;;;0.80;0.80;;;;;;;6.22;84.78;96174.13;4992465;28;20077;-73
2023/12/11 01:46:55;;;;;;;0.93;0.93;;;;;;;6.27;84.40;96158.41;4993305;28;20046;-73
2023/12/11 01:49:22;;;;;;;1.00;1.00;;;;;;;6.32;84.29;96142.75;4989065;28;20043;-73
2023/12/11 01:51:52;;;;;;;0.93;0.93;;;;;;;6.31;84.17;96172.09;4998561;28;20038;-73
2023/12/11 01:54:22;;;;;;;0.70;0.70;;;;;;;6.31;84.14;96161.50;4992986;28;20049;-73
2023/12/11 01:56:49;;;;;;;0.88;0.88;;;;;;;6.32;84.31;96171.88;4993150;28;20415;-73
2023/12/11 01:59:18;;;;;;;0.98;0.98;;;;;;;6.35;83.96;96168.00;4999324;28;20065;-73
2023/12/11 02:01:46;;;;;;;0.93;0.93;;;;;;;6.36;84.02;96170.44;4989432;28;20038;-73
2023/12/11 02:04:15;;;;;;;1.02;1.02;;;;;;;6.41;83.94;96177.78;4999989;28;20060;-72
2023/12/11 02:06:43;;;;;;;0.73;0.73;;;;;;;6.43;83.72;96165.97;4989456;28;20518;-73
2023/12/11 02:09:12;;;;;;;0.70;0.70;;;;;;;6.45;83.78;96173.69;4994128;28;20511;-72
2023/12/11 02:11:41;;;;;;;1.25;1.25;;;;;;;6.44;84.10;96174.72;5001123;28;20066;-73
2023/12/11 02:14:11;;;;;;;0.70;0.70;;;;;;;6.45;83.68;96174.53;4997610;28;20117;-73
2023/12/11 02:16:39;;;;;;;0.90;0.90;;;;;;;6.46;84.07;96181.44;4993042;28;20049;-73
2023/12/11 02:19:06;;;;;;;0.93;0.93;;;;;;;6.56;83.67;96175.75;4992531;28;20125;-73
2023/12/11 02:21:34;;;;;;;0.80;0.80;;;;;;;6.49;83.97;96178.41;4977641;28;20070;-73
2023/12/11 02:24:07;;;;;;;0.85;0.85;;;;;;;6.46;83.99;96175.34;4975109;28;20088;-73
2023/12/11 02:26:36;;;;;;;0.75;0.75;;;;;;;6.47;83.88;96171.66;4991809;28;20050;-73
2023/12/11 02:29:03;;;;;;;0.85;0.85;;;;;;;6.50;84.00;96168.63;4976486;28;20061;-73
2023/12/11 02:31:31;;;;;;;0.75;0.75;;;;;;;6.47;84.08;96172.47;4998322;28;20040;-72
2023/12/11 02:33:58;;;;;;;0.60;0.60;;;;;;;6.44;84.44;96172.88;4992349;28;20121;-74
2023/12/11 02:36:26;;;;;;;1.00;1.00;;;;;;;6.51;84.11;96163.13;4991959;28;20137;-73
2023/12/11 02:38:54;;;;;;;0.22;0.22;;;;;;;6.50;84.03;96164.13;4994962;28;20460;-73
2023/12/11 02:41:21;;;;;;;0.95;0.95;;;;;;;6.49;84.04;96162.50;4991657;28;20057;-73
2023/12/11 02:43:50;;;;;;;0.88;0.88;;;;;;;6.58;83.98;96168.41;4992264;28;20038;-74
2023/12/11 02:46:18;;;;;;;1.00;1.00;;;;;;;6.58;84.27;96155.97;4992760;28;20139;-73
2023/12/11 02:48:46;;;;;;;1.10;1.10;;;;;;;6.52;83.87;96158.63;4995621;28;20515;-73
2023/12/11 02:51:15;;;;;;;0.90;0.90;;;;;;;6.63;83.97;96158.00;4998818;28;20042;-72
2023/12/11 02:53:43;;;;;;;0.20;0.20;;;;;;;6.60;84.05;96151.28;4987677;28;20466;-73
2023/12/11 02:56:11;;;;;;;1.00;1.00;;;;;;;6.59;83.98;96162.09;4992690;28;20046;-73
2023/12/11 02:58:38;;;;;;;0.60;0.60;;;;;;;6.57;84.67;96154.34;4990782;28;20046;-72
2023/12/11 03:01:07;;;;;;;0.73;0.73;;;;;;;6.54;84.82;96167.19;4994867;28;20141;-71
2023/12/11 03:03:35;;;;;;;0.93;0.93;;;;;;;6.57;84.80;96172.06;4991473;28;20058;-71
2023/12/11 03:06:04;;;;;;;0.88;0.88;;;;;;;6.53;84.81;96169.03;4991760;28;20054;-73
2023/12/11 03:08:31;;;;;;;1.02;1.02;;;;;;;6.48;85.23;96174.13;4991510;28;20058;-74
2023/12/11 03:10:59;;;;;;;1.33;1.33;;;;;;;6.53;85.28;96176.16;4992979;28;20049;-72
2023/12/11 03:13:27;;;;;;;0.90;0.90;;;;;;;6.42;85.71;96179.44;4997464;28;20060;-73
2023/12/11 03:15:54;;;;;;;0.77;0.77;;;;;;;6.40;85.67;96166.38;4992238;28;20042;-74
2023/12/11 03:18:23;;;;;;;0.95;0.95;;;;;;;6.43;85.46;96181.06;4990595;28;20059;-74
2023/12/11 03:20:51;;;;;;;0.70;0.70;;;;;;;6.36;85.84;96183.69;4999471;28;20042;-72
2023/12/11 03:23:18;;;;;;;0.93;0.93;;;;;;;6.32;86.27;96176.38;4994098;28;20037;-73
2023/12/11 03:25:46;;;;;;;0.95;0.95;;;;;;;6.33;86.15;96167.41;4990977;28;20177;-72
2023/12/11 03:28:14;;;;;;;0.85;0.85;;;;;;;6.26;86.39;96176.16;4991575;28;20046;-71
2023/12/11 03:30:41;;;;;;;0.70;0.70;;;;;;;6.30;86.38;96175.75;4993082;28;20129;-75
2023/12/11 03:33:09;;;;;;;0.80;0.80;;;;;;;6.27;86.28;96182.25;4992719;28;20661;-75
2023/12/11 03:35:38;;;;;;;1.05;1.05;;;;;;;6.34;86.24;96188.38;4991440;28;20050;-73
2023/12/11 03:38:06;;;;;;;0.98;0.98;;;;;;;6.33;86.29;96185.94;4988975;28;20042;-75
2023/12/11 03:40:33;;;;;;;0.90;0.90;;;;;;;6.45;85.89;96173.69;4996964;28;20047;-73
2023/12/11 03:43:01;;;;;;;1.02;1.02;;;;;;;6.44;85.56;96172.06;4997249;28;20048;-72
2023/12/11 03:45:29;;;;;;;1.05;1.05;;;;;;;6.47;85.30;96164.53;4993308;28;20069;-72
2023/12/11 03:47:56;;;;;;;1.00;1.00;;;;;;;6.43;85.94;96173.13;4994498;28;20414;-72
2023/12/11 03:50:24;;;;;;;0.90;0.90;;;;;;;6.45;85.74;96160.44;4996155;28;20041;-71
2023/12/11 03:52:53;;;;;;;1.00;1.00;;;;;;;6.45;85.82;96163.09;4992276;28;20038;-75
2023/12/11 03:55:21;;;;;;;1.10;1.10;;;;;;;6.52;85.62;96161.28;4991147;28;20125;-74
2023/12/11 03:57:48;;;;;;;1.13;1.13;;;;;;;6.55;85.58;96164.31;4991075;28;20038;-72
2023/12/11 04:00:16;;;;;;;0.90;0.90;;;;;;;6.52;85.52;96158.63;4990953;28;20046;-71
2023/12/11 04:02:44;;;;;;;0.70;0.70;;;;;;;6.60;85.39;96166.38;4997226;28;20038;-72
2023/12/11 04:05:12;;;;;;;0.98;0.98;;;;;;;6.53;85.88;96153.13;4992547;28;20141;-72
2023/12/11 04:07:40;;;;;;;0.60;0.60;;;;;;;6.64;85.33;96159.66;4994025;28;20097;-72
2023/12/11 04:10:10;;;;;;;0.80;0.80;;;;;;;6.67;84.84;96161.88;4977164;28;20043;-71
2023/12/11 04:12:38;;;;;;;1.00;1.00;;;;;;;6.69;84.98;96146.56;4991104;28;20381;-72
2023/12/11 04:15:06;;;;;;;1.23;1.23;;;;;;;6.73;85.04;96160.25;4993232;28;20053;-71
2023/12/11 04:17:34;;;;;;;0.70;0.70;;;;;;;6.69;85.08;96143.09;4988832;28;20070;-73
2023/12/11 04:20:02;;;;;;;0.73;0.73;;;;;;;6.71;85.08;96146.38;4990908;28;20042;-72
2023/12/11 04:22:30;;;;;;;0.98;0.98;;;;;;;6.73;85.01;96153.09;4985164;28;20492;-72
2023/12/11 04:24:57;;;;;;;0.90;0.90;;;;;;;6.73;84.96;96154.94;4988178;28;20095;-72
2023/12/11 04:27:26;;;;;;;0.80;0.80;;;;;;;6.77;85.17;96146.34;4988982;28;20050;-72
2023/12/11 04:29:55;;;;;;;0.20;0.20;;;;;;;6.74;85.26;96159.22;4982621;28;20626;-73
2023/12/11 04:32:22;;;;;;;0.85;0.85;;;;;;;6.72;85.67;96153.31;4984019;28;20117;-73
2023/12/11 04:34:50;;;;;;;0.82;0.82;;;;;;;6.76;85.41;96160.63;4989952;28;20089;-72
2023/12/11 04:37:18;;;;;;;0.75;0.75;;;;;;;6.76;85.47;96157.97;4996456;28;20583;-74
2023/12/11 04:39:45;;;;;;;0.82;0.82;;;;;;;6.81;85.33;96147.59;4998401;28;20038;-73
2023/12/11 04:42:13;;;;;;;0.98;0.98;;;;;;;6.81;85.39;96147.59;4999861;28;20038;-76
2023/12/11 04:44:42;;;;;;;1.23;1.23;;;;;;;6.84;85.50;96152.47;4996001;28;20104;-72
2023/12/11 04:47:09;;;;;;;0.88;0.88;;;;;;;6.79;85.33;96151.47;4990869;28;20042;-72
2023/12/11 04:49:37;;;;;;;0.90;0.90;;;;;;;6.78;85.48;96144.53;4980412;28;20410;-75
2023/12/11 04:52:04;;;;;;;0.77;0.77;;;;;;;6.73;85.65;96145.16;4996039;28;20060;-72
2023/12/11 04:54:32;;;;;;;1.08;1.08;;;;;;;6.71;85.89;96143.72;4993804;28;20046;-74
2023/12/11 04:57:00;;;;;;;0.80;0.80;;;;;;;6.80;85.13;96153.09;4993922;28;20053;-72
2023/12/11 04:59:28;;;;;;;0.80;0.80;;;;;;;6.80;85.09;96151.25;4997407;28;20052;-74
2023/12/11 05:01:57;;;;;;;0.90;0.90;;;;;;;6.83;85.02;96152.69;4998922;28;20098;-73
2023/12/11 05:04:24;;;;;;;0.95;0.95;;;;;;;6.82;85.08;96146.56;4993746;28;20558;-72
2023/12/11 05:06:52;;;;;;;0.82;0.82;;;;;;;6.85;85.25;96150.66;4994346;28;20042;-72
2023/12/11 05:09:20;;;;;;;0.73;0.73;;;;;;;6.84;84.96;96156.97;4995309;28;20046;-72
2023/12/11 05:11:48;;;;;;;0.40;0.40;;;;;;;6.86;85.34;96145.09;4999754;28;20452;-74
2023/12/11 05:14:16;;;;;;;0.60;0.60;;;;;;;6.81;85.28;96147.59;4993801;28;20057;-75
2023/12/11 05:16:43;;;;;;;0.85;0.85;;;;;;;6.90;85.23;96143.69;4988600;28;20451;-74
2023/12/11 05:19:12;;;;;;;0.77;0.77;;;;;;;6.77;85.93;96140.25;4993949;28;20046;-73
2023/12/11 05:21:43;;;;;;;0.73;0.73;;;;;;;6.79;85.95;96139.00;4996412;28;20408;-73
2023/12/11 05:24:11;;;;;;;0.77;0.77;;;;;;;6.84;86.02;96147.19;4993675;28;20047;-74
2023/12/11 05:26:39;;;;;;;0.57;0.57;;;;;;;6.89;85.65;96143.88;4993721;28;20070;-73
2023/12/11 05:29:06;;;;;;;0.60;0.60;;;;;;;6.93;85.66;96148.59;4993776;28;20050;-74
2023/12/11 05:31:34;;;;;;;0.95;0.95;;;;;;;6.94;85.61;96150.22;4996272;28;20043;-75
2023/12/11 05:34:02;;;;;;;0.82;0.82;;;;;;;6.97;85.49;96152.44;4973136;28;20495;-74
2023/12/11 05:36:33;;;;;;;0.90;0.90;;;;;;;7.05;85.29;96162.03;4993576;28;20054;-74
2023/12/11 05:39:01;;;;;;;0.98;0.98;;;;;;;7.07;85.05;96149.34;5000055;28;20042;-74
2023/12/11 05:41:28;;;;;;;1.27;1.27;;;;;;;7.14;85.01;96152.00;4995942;28;20047;-74
2023/12/11 05:43:57;;;;;;;1.15;1.15;;;;;;;7.09;85.02;96141.19;4998403;28;20060;-75
2023/12/11 05:46:25;;;;;;;0.85;0.85;;;;;;;7.05;85.17;96151.41;4996730;28;20034;-75
2023/12/11 05:48:52;;;;;;;1.00;1.00;;;;;;;7.03;85.33;96131.41;4997275;28;20042;-75
2023/12/11 05:51:21;;;;;;;0.90;0.90;;;;;;;6.97;85.63;96133.06;4997864;28;20035;-74
2023/12/11 05:53:50;;;;;;;0.82;0.82;;;;;;;6.98;85.55;96130.19;4999652;28;20061;-72
2023/12/11 05:56:18;;;;;;;1.15;0.82;;;;;;;6.95;85.83;96141.25;4993585;28;20042;-75
2023/12/11 05:58:45;;;;;;;1.08;1.08;;;;;;;6.99;86.04;96139.78;4989416;28;20578;-75
2023/12/11 06:01:13;;;;;;;0.80;0.80;;;;;;;7.02;86.21;96149.16;4993798;28;20136;-75
2023/12/11 06:03:40;;;;;;;1.55;1.55;;;;;;;7.02;85.85;96143.06;4997053;28;20125;-73
2023/12/11 06:06:15;;;;;;;0.70;0.70;;;;;;;7.04;86.13;96152.44;4998223;28;20050;-75
2023/12/11 06:08:43;;;;;;;0.77;0.77;;;;;;;6.97;86.25;96163.03;4997230;28;20164;-74
2023/12/11 06:11:11;;;;;;;1.10;1.10;;;;;;;6.97;86.33;96160.38;5000549;28;20038;-73
2023/12/11 06:13:39;;;;;;;1.08;1.08;;;;;;;6.93;86.79;96156.53;4997282;28;20042;-73
2023/12/11 06:16:07;;;;;;;1.05;1.05;;;;;;;6.99;86.80;96153.03;4994070;28;20072;-73
2023/12/11 06:18:35;;;;;;;1.10;1.10;;;;;;;6.99;87.42;96158.34;4999721;28;20048;-73
2023/12/11 06:21:03;;;;;;;0.88;0.88;;;;;;;6.94;88.22;96165.31;4993587;28;20046;-72
2023/12/11 06:23:31;;;;;;;1.05;1.05;;;;;;;6.90;88.50;96151.63;4998065;28;20088;-73
2023/12/11 06:25:58;;;;;;;0.80;0.80;;;;;;;6.82;89.11;96151.88;4993760;28;20042;-73
2023/12/11 06:28:27;;;;;;;1.08;1.08;;;;;;;6.84;89.15;96147.19;4999069;28;20050;-73
2023/12/11 06:30:55;;;;;;;0.70;0.70;;;;;;;6.79;89.62;96148.81;5000351;28;20468;-73
2023/12/11 06:33:22;;;;;;;1.38;1.38;;;;;;;6.78;89.79;96142.69;5009199;28;20125;-73
2023/12/11 06:35:50;;;;;;;0.88;0.88;;;;;;;6.78;89.82;96147.16;4999912;28;20046;-73
2023/12/11 06:38:17;;;;;;;0.63;0.63;;;;;;;6.74;90.05;96148.63;4998190;28;20056;-73
2023/12/11 06:40:45;;;;;;;0.90;0.90;;;;;;;6.78;89.87;96133.91;4993998;28;20068;-73
2023/12/11 06:43:13;;;;;;;0.82;0.82;;;;;;;6.76;90.02;96126.16;4992788;28;20087;-73
2023/12/11 06:45:42;;;;;;;0.45;0.45;;;;;;;6.79;89.99;96139.00;5001758;28;20407;-73
2023/12/11 06:48:10;;;;;;;0.80;0.80;;;;;;;6.79;89.84;96130.25;4990051;28;20055;-73
2023/12/11 06:50:37;;;;;;;1.05;1.00;;;;;;;6.78;89.99;96132.09;4993430;28;20483;-73
2023/12/11 06:53:05;;;;;;;0.90;0.90;;;;;;;6.81;89.22;96130.84;5002394;28;20046;-73
2023/12/11 06:55:32;;;;;;;1.33;1.33;;;;;;;6.82;89.23;96122.69;5003482;28;20062;-73
2023/12/11 06:58:00;;;;;;;1.10;1.10;;;;;;;6.79;89.33;96144.31;5010737;28;20124;-73
2023/12/11 07:00:28;;;;;;;0.85;0.85;;;;;;;6.87;88.34;96141.44;5011345;28;20077;-72
2023/12/11 07:02:57;;;;;;;0.75;0.75;;;;;;;6.86;88.36;96136.34;5013104;28;20133;-73
2023/12/11 07:05:24;;;;;;;0.85;0.85;;;;;;;6.93;88.17;96140.63;4997083;28;20051;-73
2023/12/11 07:07:53;;;;;;;0.70;0.70;;;;;;;6.97;87.84;96144.47;4994660;28;20038;-72
2023/12/11 07:10:20;;;;;;;0.80;0.80;;;;;;;7.02;87.04;96143.88;4995518;28;20055;-75
2023/12/11 07:12:49;;;;;;;0.80;0.80;;;;;;;7.05;86.91;96145.28;4992225;28;20126;-75
2023/12/11 07:15:16;;;;;;;0.93;0.93;;;;;;;7.02;87.02;96149.16;4990981;28;20034;-75
2023/12/11 07:17:44;;;;;;;0.95;0.95;;;;;;;7.08;86.51;96152.81;4998882;28;20041;-74
2023/12/11 07:20:13;;;;;;;0.90;0.90;;;;;;;7.07;86.38;96137.91;4996490;28;20042;-75
2023/12/11 07:22:41;;;;;;;0.28;0.28;;;;;;;7.03;86.62;96144.69;4994060;28;20436;-75
2023/12/11 07:25:09;;;;;;;0.63;0.63;;;;;;;7.08;86.11;96137.72;5000915;28;20042;-74
2023/12/11 07:27:36;;;;;;;1.05;1.05;;;;;;;7.09;85.66;96144.66;5000299;28;20042;-75
2023/12/11 07:30:05;;;;;;;0.98;0.98;;;;;;;7.12;85.58;96130.16;4992951;28;20070;-75
2023/12/11 07:32:33;;;;;;;0.70;0.70;;;;;;;7.19;85.00;96138.91;4997876;28;20038;-75
2023/12/11 07:35:01;;;;;;;0.80;0.80;;;;;;;7.19;85.03;96133.59;4991533;28;20080;-74
2023/12/11 07:37:30;;;;;;;0.88;0.88;;;;;;;7.17;84.90;96115.22;4995635;28;20414;-74
2023/12/11 07:39:58;;;;;;;0.63;0.63;;;;;;;7.17;84.75;96107.28;4987218;28;20050;-74
2023/12/11 07:42:26;;;;;;;0.73;0.73;;;;;;;7.13;84.87;96094.66;4991545;28;20038;-74
2023/12/11 07:44:53;;;;;;;1.30;1.30;;;;;;;7.11;84.69;96094.84;4992320;28;20140;-72
2023/12/11 07:47:21;;;;;;;0.82;0.82;;;;;;;7.18;84.51;96089.53;5005760;28;20121;-75
2023/12/11 07:49:49;;;;;;;0.88;0.88;;;;;;;7.13;84.48;96086.69;5006446;28;20050;-75
2023/12/11 07:52:17;;;;;;;0.20;0.20;;;;;;;7.14;84.30;96083.03;5000469;28;20468;-74
2023/12/11 07:54:46;;;;;;;0.70;0.70;;;;;;;7.14;84.12;96085.69;4992457;28;20053;-75
2023/12/11 07:57:14;;;;;;;0.68;0.68;;;;;;;7.11;84.14;96089.56;4991339;28;20052;-72
2023/12/11 07:59:41;;;;;;;0.93;0.93;;;;;;;7.19;83.42;96080.53;4990382;28;20048;-75
2023/12/11 08:02:09;;;;;;;0.95;0.95;;;;;;;7.19;83.12;96080.53;4988255;28;20056;-75
2023/12/11 08:04:38;;;;;;;1.08;1.08;;;;;;;7.21;82.67;96075.84;4993258;28;20385;-73
2023/12/11 08:07:06;;;;;;;0.80;0.80;;;;;;;7.19;82.70;96069.94;4991542;28;20049;-73
2023/12/11 08:09:36;;;;;;;0.95;0.95;;;;;;;7.21;82.65;96055.44;4994985;28;20126;-73
2023/12/11 08:12:05;;;;;;;0.80;0.80;;;;;;;7.26;82.40;96052.16;4994919;28;20062;-73
2023/12/11 08:14:34;;;;;;;0.82;0.82;;;;;;;7.30;82.24;96074.56;4991093;28;20039;-75
2023/12/11 08:17:06;;;;;;;0.90;0.90;;;;;;;7.27;82.11;96059.06;4990777;28;20054;-73
2023/12/11 08:19:34;;;;;;;1.05;1.05;;;;;;;7.28;82.01;96056.19;4994019;28;20050;-72
2023/12/11 08:22:01;;;;;;;1.33;1.20;;;;;;;7.31;81.91;96073.53;4998389;28;20108;-73
2023/12/11 08:24:29;;;;;;;0.85;0.85;;;;;;;7.38;81.95;96074.31;4998268;28;20437;-73
2023/12/11 08:26:57;;;;;;;1.10;1.10;;;;;;;7.36;82.04;96076.41;4995732;28;20046;-73
2023/12/11 08:29:26;;;;;;;0.75;0.75;;;;;;;7.37;82.08;96084.13;4994357;28;20522;-73
2023/12/11 08:31:54;;;;;;;1.10;1.10;;;;;;;7.35;82.19;96080.88;4997728;28;20042;-73
2023/12/11 08:34:21;;;;;;;1.05;1.05;;;;;;;7.37;82.57;96078.03;4998939;28;20042;-73
2023/12/11 08:36:49;;;;;;;1.00;1.00;;;;;;;7.38;82.96;96084.94;4993393;28;20109;-73
2023/12/11 08:39:17;;;;;;;0.90;0.90;;;;;;;7.35;82.79;96083.53;4995136;28;20078;-74
2023/12/11 08:41:45;;;;;;;0.90;0.90;;;;;;;7.47;82.55;96086.34;4994259;28;20057;-74
2023/12/11 08:44:13;;;;;;;0.70;0.70;;;;;;;7.47;82.55;96082.88;4999923;28;20039;-73
2023/12/11 08:46:43;;;;;;;1.40;1.40;;;;;;;7.47;82.84;96081.03;4992059;28;20156;-74
2023/12/11 08:49:10;;;;;;;0.93;0.93;;;;;;;7.48;83.19;96087.94;4999530;28;20078;-74
2023/12/11 08:51:38;;;;;;;0.93;0.93;;;;;;;7.44;83.20;96073.47;4990780;28;20058;-73
2023/12/11 08:54:06;;;;;;;0.95;0.95;;;;;;;7.42;83.22;96078.19;4998558;28;20038;-73
2023/12/11 08:56:34;;;;;;;0.82;0.82;;;;;;;7.45;83.31;96075.13;4996277;28;20051;-73
2023/12/11 08:59:01;;;;;;;0.90;0.90;;;;;;;7.46;83.46;96087.38;4994299;28;20065;-74
2023/12/11 09:01:30;;;;;;;0.93;0.93;;;;;;;7.49;83.52;96092.22;4993520;28;20057;-73
2023/12/11 09:04:00;;;;;;;0.82;0.82;;;;;;;7.51;83.88;96092.84;4994100;28;20093;-73
2023/12/11 09:06:27;;;;;;;0.82;0.82;;;;;;;7.48;84.31;96098.56;4976867;28;20082;-73
2023/12/11 09:08:55;;;;;;;0.85;0.85;;;;;;;7.45;84.81;96104.31;4994042;28;20511;-73
2023/12/11 09:11:23;;;;;;;0.88;0.88;;;;;;;7.44;84.92;96092.06;4997843;28;20137;-74
2023/12/11 09:13:50;;;;;;;0.85;0.85;;;;;;;7.47;85.56;96091.66;4986904;28;20046;-73
2023/12/11 09:16:18;;;;;;;1.67;1.67;;;;;;;7.47;85.40;96102.25;4994525;28;20052;-73
2023/12/11 09:18:46;;;;;;;1.17;1.17;;;;;;;7.45;86.04;96098.19;4993551;28;20057;-73
2023/12/11 09:21:15;;;;;;;1.10;1.10;;;;;;;7.43;86.64;96076.34;5003962;28;20082;-74
2023/12/11 09:23:43;;;;;;;0.80;0.80;;;;;;;7.45;86.68;96092.88;4998454;28;20122;-74
2023/12/11 09:26:10;;;;;;;0.70;0.70;;;;;;;7.41;87.04;96081.88;4993949;28;20052;-74
2023/12/11 09:28:39;;;;;;;0.82;0.82;;;;;;;7.41;87.61;96079.22;4993338;28;20117;-73
2023/12/11 09:31:19;;;;;;;1.00;1.00;;;;;;;7.43;87.70;96076.34;4975753;28;20054;-73
2023/12/11 09:33:47;;;;;;;0.88;0.88;;;;;;;7.42;87.54;96064.91;4994517;28;20393;-73
2023/12/11 09:36:16;;;;;;;0.30;0.30;;;;;;;7.45;87.62;96058.38;4994279;28;20484;-73
2023/12/11 09:38:44;;;;;;;0.80;0.80;;;;;;;7.45;87.47;96061.03;4995429;28;20046;-74
2023/12/11 09:41:12;;;;;;;0.55;0.55;;;;;;;7.48;87.40;96057.94;4993962;28;20046;-74
2023/12/11 09:43:40;;;;;;;0.35;0.35;;;;;;;7.51;87.34;96058.31;4995423;28;20406;-73
2023/12/11 09:46:09;;;;;;;1.02;1.02;;;;;;;7.57;87.21;96062.81;4996384;28;20074;-73
2023/12/11 09:48:36;;;;;;;0.68;0.68;;;;;;;7.59;86.94;96054.59;4994697;28;20498;-74
2023/12/11 09:51:05;;;;;;;0.93;0.93;;;;;;;7.58;87.27;96058.31;4999294;28;20050;-74
2023/12/11 09:53:35;;;;;;;0.90;0.90;;;;;;;7.60;87.58;96046.41;4993507;28;20050;-74
2023/12/11 09:56:03;;;;;;;0.95;0.95;;;;;;;7.64;87.49;96028.22;4988530;28;20042;-74
2023/12/11 09:58:31;;;;;;;0.73;0.73;;;;;;;7.60;87.87;96032.34;4993250;28;20456;-73
2023/12/11 10:01:00;;;;;;;0.95;0.95;;;;;;;7.60;88.42;96030.50;4997689;28;20045;-73
2023/12/11 10:03:29;;;;;;;0.50;0.50;;;;;;;7.57;88.81;96030.94;5004071;28;20201;-73
2023/12/11 10:05:59;;;;;;;0.82;0.82;;;;;;;7.59;89.04;96042.13;4993591;28;20045;-74
2023/12/11 10:08:27;;;;;;;0.60;0.60;;;;;;;7.68;88.72;96032.09;4994783;28;20042;-74
2023/12/11 10:11:08;;;;;;;0.98;0.90;;;;;;;7.68;88.52;96032.88;4989350;28;20046;-73
2023/12/11 10:13:36;;;;;;;0.77;0.77;;;;;;;7.68;88.61;96016.16;4997703;28;20075;-74
2023/12/11 10:16:06;;;;;;;1.05;1.05;;;;;;;7.69;88.88;96007.16;4999637;28;20038;-73
2023/12/11 10:18:33;;;;;;;1.02;1.02;;;;;;;7.70;87.71;96003.47;4995289;28;20058;-74
2023/12/11 10:21:01;;;;;;;1.00;1.00;;;;;;;7.72;88.11;96004.88;5000377;28;20112;-74
2023/12/11 10:23:29;;;;;;;0.80;0.80;;;;;;;7.79;87.86;96007.47;4993947;28;20041;-73
2023/12/11 10:26:06;;;;;;;0.82;0.82;;;;;;;7.83;87.90;95992.75;4992381;28;20483;-74
2023/12/11 10:28:34;;;;;;;1.00;1.00;;;;;;;7.89;87.13;95999.81;4989566;28;20052;-73
2023/12/11 10:31:04;;;;;;;0.82;0.82;;;;;;;7.95;86.43;95995.50;4994279;28;20092;-73
2023/12/11 10:33:33;;;;;;;0.98;0.98;;;;;;;8.00;86.49;95999.13;4991901;28;20058;-73
2023/12/11 10:36:12;;;;;;;0.80;0.80;;;;;;;8.01;86.50;95992.78;4990093;28;20075;-73
2023/12/11 10:38:40;;;;;;;0.85;0.85;;;;;;;8.04;85.69;95989.69;4990641;28;20125;-73
2023/12/11 10:41:09;;;;;;;0.68;0.68;;;;;;;8.10;85.06;95988.81;4994493;28;20046;-73
2023/12/11 10:43:41;;;;;;;0.93;0.93;;;;;;;8.17;84.85;95979.97;4993564;28;20420;-73
2023/12/11 10:46:28;;;;;;;1.00;1.00;;;;;;;8.24;84.62;95986.03;4991513;28;20038;-73
2023/12/11 10:48:57;;;;;;;0.65;0.65;;;;;;;8.33;83.66;95998.03;5000224;28;20137;-76
2023/12/11 10:51:27;;;;;;;0.77;0.77;;;;;;;8.33;83.43;95988.22;4998829;28;20156;-73
2023/12/11 10:53:54;;;;;;;0.80;0.80;;;;;;;8.35;83.69;95994.13;4998403;28;20042;-74
2023/12/11 10:56:24;;;;;;;0.65;0.65;;;;;;;8.35;83.47;95990.66;5007572;28;20488;-73
2023/12/11 10:58:52;;;;;;;0.85;0.85;;;;;;;8.36;82.91;95985.13;5005321;28;20046;-73
2023/12/11 11:01:21;;;;;;;0.82;0.82;;;;;;;8.36;82.86;95997.59;5032818;23;20072;-73
2023/12/11 11:03:50;;;;;;;1.00;1.00;;;;;;;8.34;83.35;95994.34;5017519;28;20042;-73
2023/12/11 11:06:20;;;;;;;0.75;0.75;;;;;;;8.34;83.70;95989.03;5019578;28;20041;-72
2023/12/11 11:08:52;;;;;;;0.88;0.88;;;;;;;8.32;83.36;95985.78;5014814;28;20567;-73
2023/12/11 11:11:24;;;;;;;0.98;0.98;;;;;;;8.34;83.61;95984.53;5010206;28;20056;-72
2023/12/11 11:14:08;;;;;;;1.00;1.00;;;;;;;8.37;83.55;95981.44;4997980;28;20677;-72
2023/12/11 11:16:52;;;;;;;0.88;0.88;;;;;;;8.36;82.92;95977.16;5000487;28;20452;-72
2023/12/11 11:19:20;;;;;;;0.95;0.95;;;;;;;8.42;82.61;95973.59;4998075;28;20073;-73
2023/12/11 11:22:22;;;;;;;1.15;1.15;;;;;;;8.42;82.43;95970.13;4999815;28;20078;-73
2023/12/11 11:25:30;;;;;;;1.10;1.10;;;;;;;8.43;82.63;95977.88;4999845;28;20097;-72
2023/12/11 11:27:58;;;;;;;0.77;0.77;;;;;;;8.49;82.18;95978.88;5001868;28;20054;-72
2023/12/11 11:30:50;;;;;;;0.85;0.85;;;;;;;8.59;80.49;95975.69;5002488;28;20046;-72
2023/12/11 11:33:20;;;;;;;0.80;0.80;;;;;;;8.62;80.26;95976.03;4999750;28;20081;-72
2023/12/11 11:35:48;;;;;;;0.80;0.80;;;;;;;8.63;80.94;95976.84;4999181;28;20049;-72
2023/12/11 11:38:19;;;;;;;0.38;0.38;;;;;;;8.68;80.40;95972.50;5000567;28;20419;-72
2023/12/11 11:40:48;;;;;;;0.85;0.85;;;;;;;8.88;79.92;95972.25;4999260;28;20045;-73
2023/12/11 11:43:18;;;;;;;0.80;0.80;;;;;;;8.95;78.66;95972.97;5001210;28;21198;-72
2023/12/11 11:45:45;;;;;;;1.02;1.02;;;;;;;9.07;77.89;95962.38;5002519;28;20511;-72
2023/12/11 11:48:13;;;;;;;0.90;0.90;;;;;;;9.13;78.34;95969.47;5002805;28;20511;-72